createdAt,value
2019-04-10T00:00:51.488Z,0.00
2019-04-10T00:01:51.438Z,0.00
2019-04-10T00:02:51.435Z,0.00
2019-04-10T00:03:51.462Z,0.00
2019-04-10T00:04:51.648Z,0.00
2019-04-10T00:05:52.135Z,0.00
2019-04-10T00:06:52.210Z,0.00
2019-04-10T00:07:51.408Z,0.00
2019-04-10T00:08:52.669Z,0.00
2019-04-10T00:09:51.686Z,0.00
2019-04-10T00:10:52.209Z,0.00
2019-04-10T00:11:51.438Z,0.00
2019-04-10T00:12:51.383Z,0.00
2019-04-10T00:13:51.366Z,0.00
2019-04-10T00:14:52.490Z,0.00
2019-04-10T00:15:51.362Z,0.00
2019-04-10T00:16:52.231Z,0.00
2019-04-10T00:17:51.501Z,0.00
2019-04-10T00:18:51.337Z,0.00
2019-04-10T00:19:51.904Z,0.00
2019-04-10T00:20:51.318Z,0.00
2019-04-10T00:21:51.322Z,0.00
2019-04-10T00:22:51.326Z,0.00
2019-04-10T00:23:51.364Z,0.00
2019-04-10T00:24:52.423Z,0.00
2019-04-10T00:25:51.300Z,0.00
2019-04-10T00:26:52.261Z,0.00
2019-04-10T00:27:51.288Z,0.00
2019-04-10T00:28:51.934Z,0.00
2019-04-10T00:29:52.327Z,0.00
2019-04-10T00:30:51.571Z,0.00
2019-04-10T00:31:51.255Z,0.00
2019-04-10T00:32:52.252Z,0.00
2019-04-10T00:33:51.461Z,0.00
2019-04-10T00:34:51.231Z,0.00
2019-04-10T00:35:51.963Z,0.00
2019-04-10T00:36:51.444Z,0.00
2019-04-10T00:37:51.326Z,0.00
2019-04-10T00:38:51.195Z,0.00
2019-04-10T00:39:51.189Z,0.00
2019-04-10T00:40:52.016Z,0.00
2019-04-10T00:41:51.172Z,0.00
2019-04-10T00:42:51.635Z,0.00
2019-04-10T00:43:51.161Z,0.00
2019-04-10T00:44:52.158Z,0.00
2019-04-10T00:45:51.463Z,0.00
2019-04-10T00:46:51.128Z,0.00
2019-04-10T00:47:51.188Z,0.00
2019-04-10T00:48:52.134Z,0.00
2019-04-10T00:49:51.108Z,0.00
2019-04-10T00:50:51.099Z,0.00
2019-04-10T00:51:52.003Z,0.00
2019-04-10T00:52:51.087Z,0.00
2019-04-10T00:53:51.713Z,0.00
2019-04-10T00:54:51.128Z,0.00
2019-04-10T00:55:52.199Z,0.00
2019-04-10T00:56:51.052Z,0.00
2019-04-10T00:57:51.905Z,0.00
2019-04-10T00:58:51.268Z,0.00
2019-04-10T00:59:51.042Z,0.00
2019-04-10T01:00:51.872Z,0.00
2019-04-10T01:01:52.070Z,0.00
2019-04-10T01:02:51.365Z,0.00
2019-04-10T01:03:51.284Z,0.00
2019-04-10T01:04:51.177Z,0.00
2019-04-10T01:05:51.290Z,0.00
2019-04-10T01:06:50.996Z,0.00
2019-04-10T01:07:51.919Z,0.00
2019-04-10T01:08:51.122Z,0.00
2019-04-10T01:09:50.986Z,0.00
2019-04-10T01:10:50.978Z,0.00
2019-04-10T01:11:51.698Z,0.00
2019-04-10T01:12:52.373Z,0.00
2019-04-10T01:13:51.725Z,0.00
2019-04-10T01:14:50.943Z,0.00
2019-04-10T01:15:51.011Z,0.00
2019-04-10T01:16:51.501Z,0.00
2019-04-10T01:17:50.921Z,0.00
2019-04-10T01:18:51.244Z,0.00
2019-04-10T01:19:52.332Z,0.00
2019-04-10T01:20:50.904Z,0.00
2019-04-10T01:21:50.911Z,0.00
2019-04-10T01:22:51.871Z,0.00
2019-04-10T01:23:51.131Z,0.00
2019-04-10T01:24:50.915Z,0.00
2019-04-10T01:25:50.919Z,0.00
2019-04-10T01:26:51.732Z,0.00
2019-04-10T01:27:51.970Z,0.00
2019-04-10T01:28:51.216Z,0.00
2019-04-10T01:29:51.565Z,0.00
2019-04-10T01:30:50.897Z,0.00
2019-04-10T01:31:51.266Z,0.00
2019-04-10T01:32:52.293Z,0.00
2019-04-10T01:33:50.881Z,0.00
2019-04-10T01:34:51.770Z,0.00
2019-04-10T01:35:50.932Z,0.00
2019-04-10T01:36:50.866Z,0.00
2019-04-10T01:37:56.216Z,0.00
2019-04-10T01:38:53.744Z,0.00
2019-04-10T01:39:50.852Z,0.00
2019-04-10T01:40:51.157Z,0.00
2019-04-10T01:41:50.836Z,0.00
2019-04-10T01:43:02.289Z,0.00
2019-04-10T01:43:52.836Z,0.00
2019-04-10T01:44:51.186Z,0.00
2019-04-10T01:45:51.551Z,0.00
2019-04-10T01:46:50.841Z,0.00
2019-04-10T01:47:51.192Z,0.00
2019-04-10T01:48:51.284Z,0.00
2019-04-10T01:49:50.769Z,0.00
2019-04-10T01:50:50.846Z,0.00
2019-04-10T01:51:51.809Z,0.00
2019-04-10T01:52:50.762Z,0.00
2019-04-10T01:53:50.736Z,0.00
2019-04-10T01:54:51.332Z,0.00
2019-04-10T01:55:51.383Z,0.00
2019-04-10T01:56:50.758Z,0.00
2019-04-10T01:57:50.736Z,0.00
2019-04-10T01:58:51.669Z,0.00
2019-04-10T01:59:50.735Z,0.00
2019-04-10T02:00:50.738Z,0.00
2019-04-10T02:01:50.714Z,0.00
2019-04-10T02:02:51.544Z,0.00
2019-04-10T02:03:50.712Z,0.00
2019-04-10T02:04:52.212Z,0.00
2019-04-10T02:05:52.621Z,0.00
2019-04-10T02:06:51.637Z,0.00
2019-04-10T02:08:02.119Z,0.00
2019-04-10T02:08:52.721Z,0.00
2019-04-10T02:09:51.801Z,0.00
2019-04-10T02:10:50.696Z,0.00
2019-04-10T02:11:50.677Z,0.00
2019-04-10T02:12:50.874Z,0.00
2019-04-10T02:13:51.749Z,0.00
2019-04-10T02:14:50.661Z,0.00
2019-04-10T02:15:50.644Z,0.00
2019-04-10T02:16:51.524Z,0.00
2019-04-10T02:17:50.863Z,0.00
2019-04-10T02:18:50.621Z,0.00
2019-04-10T02:19:50.650Z,0.00
2019-04-10T02:20:51.507Z,0.00
2019-04-10T02:21:50.599Z,0.00
2019-04-10T02:22:50.588Z,0.00
2019-04-10T02:23:50.593Z,0.00
2019-04-10T02:24:51.466Z,0.00
2019-04-10T02:25:50.568Z,0.00
2019-04-10T02:26:50.573Z,0.00
2019-04-10T02:27:50.926Z,0.00
2019-04-10T02:28:51.377Z,0.00
2019-04-10T02:29:50.548Z,0.00
2019-04-10T02:30:50.884Z,0.00
2019-04-10T02:31:51.156Z,0.00
2019-04-10T02:32:52.921Z,0.00
2019-04-10T02:33:51.809Z,0.00
2019-04-10T02:34:52.998Z,0.00
2019-04-10T02:35:50.509Z,0.00
2019-04-10T02:36:50.789Z,0.00
2019-04-10T02:37:55.290Z,0.00
2019-04-10T02:39:03.326Z,0.00
2019-04-10T02:39:56.304Z,0.00
2019-04-10T02:40:52.964Z,0.00
2019-04-10T02:41:52.136Z,0.00
2019-04-10T02:42:51.363Z,0.00
2019-04-10T02:43:51.418Z,0.00
2019-04-10T02:44:51.799Z,0.00
2019-04-10T02:45:51.205Z,0.00
2019-04-10T02:46:51.874Z,0.00
2019-04-10T02:47:51.001Z,0.00
2019-04-10T02:48:52.002Z,0.00
2019-04-10T02:49:52.209Z,0.00
2019-04-10T02:50:51.330Z,0.00
2019-04-10T02:51:51.778Z,0.00
2019-04-10T02:52:50.961Z,0.00
2019-04-10T02:53:53.000Z,0.00
2019-04-10T02:54:51.417Z,0.00
2019-04-10T02:55:51.558Z,0.00
2019-04-10T02:56:50.408Z,0.00
2019-04-10T02:57:51.751Z,0.00
2019-04-10T02:58:51.592Z,0.00
2019-04-10T02:59:51.238Z,0.00
2019-04-10T03:00:52.526Z,0.00
2019-04-10T03:01:51.858Z,0.00
2019-04-10T03:02:52.016Z,0.00
2019-04-10T03:03:52.579Z,0.00
2019-04-10T03:04:53.185Z,0.00
2019-04-10T03:05:51.017Z,0.00
2019-04-10T03:06:51.646Z,0.00
2019-04-10T03:07:52.627Z,0.00
2019-04-10T03:09:02.128Z,0.00
2019-04-10T03:10:01.929Z,0.00
2019-04-10T03:10:58.975Z,0.00
2019-04-10T03:11:52.347Z,0.00
2019-04-10T03:12:50.333Z,0.00
2019-04-10T03:13:51.234Z,0.00
2019-04-10T03:14:52.043Z,0.00
2019-04-10T03:15:51.705Z,0.00
2019-04-10T03:16:51.353Z,0.00
2019-04-10T03:17:50.486Z,0.00
2019-04-10T03:18:50.303Z,0.00
2019-04-10T03:19:50.285Z,0.00
2019-04-10T03:20:50.946Z,0.00
2019-04-10T03:21:51.283Z,0.00
2019-04-10T03:22:51.287Z,0.00
2019-04-10T03:23:50.295Z,0.00
2019-04-10T03:24:50.679Z,0.00
2019-04-10T03:25:50.947Z,0.00
2019-04-10T03:26:50.234Z,0.00
2019-04-10T03:27:50.449Z,0.00
2019-04-10T03:28:51.398Z,0.00
2019-04-10T03:29:50.211Z,0.00
2019-04-10T03:30:50.200Z,0.00
2019-04-10T03:31:52.259Z,0.00
2019-04-10T03:32:55.856Z,0.00
2019-04-10T03:33:54.085Z,0.00
2019-04-10T03:34:52.939Z,0.00
2019-04-10T03:35:51.312Z,0.00
2019-04-10T03:36:50.154Z,0.00
2019-04-10T03:37:50.798Z,0.00
2019-04-10T03:38:58.545Z,0.00
2019-04-10T03:39:53.180Z,0.00
2019-04-10T03:40:50.125Z,0.00
2019-04-10T03:41:50.551Z,0.00
2019-04-10T03:42:50.107Z,0.00
2019-04-10T03:43:50.159Z,0.00
2019-04-10T03:44:50.092Z,0.00
2019-04-10T03:45:50.092Z,0.00
2019-04-10T03:46:50.998Z,0.00
2019-04-10T03:47:50.072Z,0.00
2019-04-10T03:48:50.062Z,0.00
2019-04-10T03:49:50.048Z,0.00
2019-04-10T03:50:50.241Z,0.00
2019-04-10T03:51:51.051Z,0.00
2019-04-10T03:52:50.046Z,0.00
2019-04-10T03:53:50.803Z,0.00
2019-04-10T03:54:50.031Z,0.00
2019-04-10T03:55:51.112Z,0.00
2019-04-10T03:56:50.094Z,0.00
2019-04-10T03:57:51.851Z,0.00
2019-04-10T03:58:50.033Z,0.00
2019-04-10T03:59:50.013Z,0.00
2019-04-10T04:00:50.635Z,0.00
2019-04-10T04:01:51.367Z,0.00
2019-04-10T04:02:49.988Z,0.00
2019-04-10T04:03:51.092Z,0.00
2019-04-10T04:04:50.110Z,0.00
2019-04-10T04:05:50.976Z,0.00
2019-04-10T04:06:50.223Z,0.00
2019-04-10T04:07:50.685Z,0.00
2019-04-10T04:09:01.694Z,0.00
2019-04-10T04:09:51.935Z,0.00
2019-04-10T04:10:51.123Z,0.00
2019-04-10T04:11:50.304Z,0.00
2019-04-10T04:12:50.760Z,0.00
2019-04-10T04:13:50.093Z,0.00
2019-04-10T04:14:49.895Z,0.00
2019-04-10T04:15:50.587Z,0.00
2019-04-10T04:16:49.881Z,0.00
2019-04-10T04:17:50.627Z,0.00
2019-04-10T04:18:49.859Z,0.00
2019-04-10T04:19:50.452Z,0.00
2019-04-10T04:20:50.904Z,0.00
2019-04-10T04:21:50.233Z,0.00
2019-04-10T04:22:49.837Z,0.00
2019-04-10T04:23:49.848Z,0.00
2019-04-10T04:24:50.317Z,0.00
2019-04-10T04:25:50.394Z,0.00
2019-04-10T04:26:50.821Z,0.00
2019-04-10T04:27:49.812Z,0.00
2019-04-10T04:28:49.801Z,0.00
2019-04-10T04:29:49.908Z,0.00
2019-04-10T04:30:51.914Z,0.00
2019-04-10T04:31:50.772Z,0.00
2019-04-10T04:32:50.509Z,0.00
2019-04-10T04:33:49.766Z,0.00
2019-04-10T04:34:49.829Z,4.00
2019-04-10T04:35:50.697Z,4.00
2019-04-10T04:36:49.741Z,4.00
2019-04-10T04:37:50.600Z,4.00
2019-04-10T04:38:49.726Z,0.00
2019-04-10T04:39:49.933Z,4.00
2019-04-10T04:40:51.289Z,4.00
2019-04-10T04:41:50.095Z,0.00
2019-04-10T04:42:49.702Z,4.00
2019-04-10T04:43:50.179Z,4.00
2019-04-10T04:44:49.684Z,4.00
2019-04-10T04:45:50.680Z,4.00
2019-04-10T04:46:50.575Z,4.00
2019-04-10T04:47:50.309Z,8.00
2019-04-10T04:48:50.115Z,8.00
2019-04-10T04:49:50.267Z,8.00
2019-04-10T04:50:50.024Z,8.00
2019-04-10T04:51:50.562Z,8.00
2019-04-10T04:52:49.645Z,8.00
2019-04-10T04:53:50.512Z,12.00
2019-04-10T04:54:49.871Z,12.00
2019-04-10T04:55:49.641Z,12.00
2019-04-10T04:56:50.475Z,16.00
2019-04-10T04:57:49.639Z,16.00
2019-04-10T04:58:49.725Z,16.00
2019-04-10T04:59:50.484Z,20.00
2019-04-10T05:00:50.839Z,20.00
2019-04-10T05:01:49.605Z,20.00
2019-04-10T05:02:49.585Z,16.00
2019-04-10T05:03:50.533Z,20.00
2019-04-10T05:04:49.575Z,20.00
2019-04-10T05:05:49.976Z,20.00
2019-04-10T05:06:50.095Z,24.00
2019-04-10T05:07:59.238Z,24.00
2019-04-10T05:08:52.492Z,24.00
2019-04-10T05:09:50.433Z,20.00
2019-04-10T05:10:49.723Z,20.00
2019-04-10T05:11:49.534Z,20.00
2019-04-10T05:12:49.608Z,24.00
2019-04-10T05:13:49.523Z,24.00
2019-04-10T05:14:49.513Z,24.00
2019-04-10T05:15:49.508Z,24.00
2019-04-10T05:16:49.932Z,24.00
2019-04-10T05:17:49.495Z,28.00
2019-04-10T05:18:50.135Z,28.00
2019-04-10T05:19:50.331Z,28.00
2019-04-10T05:20:50.885Z,32.00
2019-04-10T05:21:50.499Z,32.00
2019-04-10T05:22:51.987Z,28.00
2019-04-10T05:23:49.472Z,32.00
2019-04-10T05:24:49.457Z,32.00
2019-04-10T05:25:49.800Z,32.00
2019-04-10T05:26:49.443Z,36.00
2019-04-10T05:27:49.430Z,36.00
2019-04-10T05:28:49.428Z,36.00
2019-04-10T05:29:50.499Z,40.00
2019-04-10T05:30:50.505Z,40.00
2019-04-10T05:31:49.405Z,44.00
2019-04-10T05:32:49.432Z,44.00
2019-04-10T05:33:49.387Z,48.00
2019-04-10T05:34:50.312Z,48.00
2019-04-10T05:35:49.368Z,52.00
2019-04-10T05:36:49.362Z,52.00
2019-04-10T05:37:49.365Z,56.00
2019-04-10T05:38:50.998Z,56.00
2019-04-10T05:39:51.958Z,56.00
2019-04-10T05:40:50.684Z,56.00
2019-04-10T05:41:50.279Z,64.00
2019-04-10T05:42:49.315Z,64.00
2019-04-10T05:43:49.306Z,64.00
2019-04-10T05:44:50.152Z,64.00
2019-04-10T05:45:49.289Z,64.00
2019-04-10T05:46:49.290Z,68.00
2019-04-10T05:47:49.276Z,68.00
2019-04-10T05:48:50.481Z,72.00
2019-04-10T05:49:49.267Z,72.00
2019-04-10T05:50:57.707Z,76.00
2019-04-10T05:51:51.245Z,80.00
2019-04-10T05:52:49.248Z,80.00
2019-04-10T05:53:51.354Z,84.00
2019-04-10T05:54:51.504Z,84.00
2019-04-10T05:55:49.419Z,88.00
2019-04-10T05:56:50.352Z,92.00
2019-04-10T05:57:49.218Z,96.00
2019-04-10T05:58:49.207Z,96.00
2019-04-10T05:59:49.196Z,100.00
2019-04-10T06:00:49.812Z,104.00
2019-04-10T06:01:50.555Z,112.00
2019-04-10T06:02:50.190Z,120.00
2019-04-10T06:03:49.226Z,136.00
2019-04-10T06:04:49.646Z,148.00
2019-04-10T06:05:49.167Z,156.00
2019-04-10T06:06:49.144Z,168.00
2019-04-10T06:07:49.534Z,180.00
2019-04-10T06:08:49.164Z,188.00
2019-04-10T06:09:55.847Z,188.00
2019-04-10T06:10:51.925Z,192.00
2019-04-10T06:11:49.125Z,188.00
2019-04-10T06:12:49.118Z,180.00
2019-04-10T06:13:49.107Z,180.00
2019-04-10T06:14:49.108Z,180.00
2019-04-10T06:15:49.094Z,172.00
2019-04-10T06:16:49.094Z,164.00
2019-04-10T06:17:49.084Z,160.00
2019-04-10T06:18:49.337Z,148.00
2019-04-10T06:19:49.102Z,136.00
2019-04-10T06:20:49.367Z,132.00
2019-04-10T06:21:49.057Z,124.00
2019-04-10T06:22:49.037Z,120.00
2019-04-10T06:23:49.832Z,120.00
2019-04-10T06:24:49.021Z,116.00
2019-04-10T06:25:49.903Z,120.00
2019-04-10T06:26:50.102Z,120.00
2019-04-10T06:27:49.018Z,124.00
2019-04-10T06:28:49.005Z,120.00
2019-04-10T06:29:48.998Z,128.00
2019-04-10T06:30:50.149Z,128.00
2019-04-10T06:31:49.350Z,132.00
2019-04-10T06:32:48.982Z,136.00
2019-04-10T06:33:48.981Z,136.00
2019-04-10T06:34:50.112Z,140.00
2019-04-10T06:35:49.031Z,140.00
2019-04-10T06:36:49.974Z,144.00
2019-04-10T06:37:50.372Z,144.00
2019-04-10T06:38:48.966Z,148.00
2019-04-10T06:39:49.119Z,148.00
2019-04-10T06:40:50.324Z,148.00
2019-04-10T06:41:48.953Z,152.00
2019-04-10T06:42:52.285Z,156.00
2019-04-10T06:43:49.926Z,156.00
2019-04-10T06:44:48.916Z,160.00
2019-04-10T06:45:48.908Z,156.00
2019-04-10T06:46:48.911Z,164.00
2019-04-10T06:47:48.895Z,160.00
2019-04-10T06:48:49.812Z,164.00
2019-04-10T06:49:48.881Z,172.00
2019-04-10T06:50:48.868Z,176.00
2019-04-10T06:51:49.422Z,184.00
2019-04-10T06:52:49.261Z,188.00
2019-04-10T06:53:59.921Z,192.00
2019-04-10T06:54:51.128Z,200.00
2019-04-10T06:55:48.948Z,204.00
2019-04-10T06:56:48.895Z,208.00
2019-04-10T06:57:55.005Z,208.00
2019-04-10T06:58:51.910Z,208.00
2019-04-10T06:59:48.846Z,204.00
2019-04-10T07:00:52.950Z,204.00
2019-04-10T07:01:53.343Z,204.00
2019-04-10T07:02:50.825Z,204.00
2019-04-10T07:03:58.514Z,200.00
2019-04-10T07:04:55.674Z,204.00
2019-04-10T07:06:03.853Z,204.00
2019-04-10T07:07:00.063Z,208.00
2019-04-10T07:07:57.417Z,200.00
2019-04-10T07:08:53.399Z,200.00
2019-04-10T07:09:54.466Z,200.00
2019-04-10T07:10:55.384Z,204.00
2019-04-10T07:11:55.526Z,204.00
2019-04-10T07:12:53.244Z,204.00
2019-04-10T07:13:49.338Z,200.00
2019-04-10T07:14:51.495Z,196.00
2019-04-10T07:15:54.400Z,200.00
2019-04-10T07:16:50.712Z,200.00
2019-04-10T07:17:49.250Z,204.00
2019-04-10T07:18:49.453Z,204.00
2019-04-10T07:19:49.720Z,212.00
2019-04-10T07:20:48.996Z,220.00
2019-04-10T07:21:49.703Z,220.00
2019-04-10T07:22:49.725Z,224.00
2019-04-10T07:23:49.047Z,224.00
2019-04-10T07:24:51.388Z,224.00
2019-04-10T07:25:48.684Z,220.00
2019-04-10T07:26:49.754Z,220.00
2019-04-10T07:27:49.686Z,224.00
2019-04-10T07:28:49.357Z,224.00
2019-04-10T07:29:51.567Z,228.00
2019-04-10T07:30:50.662Z,236.00
2019-04-10T07:31:48.869Z,236.00
2019-04-10T07:32:49.150Z,236.00
2019-04-10T07:33:50.785Z,236.00
2019-04-10T07:34:50.781Z,232.00
2019-04-10T07:35:49.867Z,228.00
2019-04-10T07:36:49.553Z,228.00
2019-04-10T07:37:54.316Z,228.00
2019-04-10T07:38:53.912Z,228.00
2019-04-10T07:39:49.611Z,228.00
2019-04-10T07:40:49.096Z,236.00
2019-04-10T07:41:49.329Z,244.00
2019-04-10T07:42:48.725Z,252.00
2019-04-10T07:43:53.899Z,256.00
2019-04-10T07:44:50.565Z,260.00
2019-04-10T07:45:48.556Z,264.00
2019-04-10T07:46:48.849Z,264.00
2019-04-10T07:47:49.537Z,264.00
2019-04-10T07:48:48.527Z,264.00
2019-04-10T07:49:48.534Z,260.00
2019-04-10T07:50:48.620Z,256.00
2019-04-10T07:51:49.163Z,252.00
2019-04-10T07:52:50.037Z,248.00
2019-04-10T07:53:49.173Z,248.00
2019-04-10T07:54:48.508Z,252.00
2019-04-10T07:55:59.939Z,252.00
2019-04-10T07:56:51.329Z,264.00
2019-04-10T07:57:50.013Z,268.00
2019-04-10T07:58:49.489Z,276.00
2019-04-10T07:59:49.490Z,284.00
2019-04-10T08:00:49.739Z,292.00
2019-04-10T08:01:49.424Z,304.00
2019-04-10T08:02:49.150Z,320.00
2019-04-10T08:03:51.302Z,336.00
2019-04-10T08:04:48.443Z,348.00
2019-04-10T08:05:48.435Z,364.00
2019-04-10T08:06:48.527Z,372.00
2019-04-10T08:07:48.499Z,380.00
2019-04-10T08:08:49.196Z,392.00
2019-04-10T08:09:49.735Z,404.00
2019-04-10T08:10:48.786Z,416.00
2019-04-10T08:11:48.903Z,428.00
2019-04-10T08:12:52.167Z,436.00
2019-04-10T08:13:51.192Z,444.00
2019-04-10T08:14:48.541Z,456.00
2019-04-10T08:15:48.377Z,464.00
2019-04-10T08:16:48.470Z,472.00
2019-04-10T08:17:50.886Z,480.00
2019-04-10T08:18:49.846Z,492.00
2019-04-10T08:19:48.838Z,508.00
2019-04-10T08:20:48.883Z,520.00
2019-04-10T08:21:49.149Z,532.00
2019-04-10T08:22:48.317Z,544.00
2019-04-10T08:23:48.584Z,556.00
2019-04-10T08:24:49.165Z,568.00
2019-04-10T08:25:49.490Z,576.00
2019-04-10T08:26:49.270Z,588.00
2019-04-10T08:27:48.591Z,600.00
2019-04-10T08:28:49.598Z,616.00
2019-04-10T08:29:48.492Z,640.00
2019-04-10T08:30:50.399Z,664.00
2019-04-10T08:31:48.377Z,680.00
2019-04-10T08:32:57.131Z,692.00
2019-04-10T08:33:50.468Z,708.00
2019-04-10T08:34:48.801Z,732.00
2019-04-10T08:35:48.247Z,756.00
2019-04-10T08:36:48.257Z,788.00
2019-04-10T08:37:48.728Z,812.00
2019-04-10T08:38:48.955Z,836.00
2019-04-10T08:39:49.846Z,860.00
2019-04-10T08:40:48.279Z,884.00
2019-04-10T08:41:48.205Z,908.00
2019-04-10T08:42:49.163Z,940.00
2019-04-10T08:43:48.258Z,972.00
2019-04-10T08:44:48.737Z,988.00
2019-04-10T08:45:51.579Z,1012.00
2019-04-10T08:46:50.337Z,1040.00
2019-04-10T08:47:48.679Z,1068.00
2019-04-10T08:48:48.151Z,1108.00
2019-04-10T08:49:48.139Z,1144.00
2019-04-10T08:50:48.218Z,1200.00
2019-04-10T08:51:48.116Z,1284.00
2019-04-10T08:52:48.701Z,1360.00
2019-04-10T08:53:48.856Z,1484.00
2019-04-10T08:54:49.048Z,1672.00
2019-04-10T08:55:48.471Z,1732.00
2019-04-10T08:56:49.130Z,1660.00
2019-04-10T08:57:48.150Z,1564.00
2019-04-10T08:58:49.763Z,1508.00
2019-04-10T08:59:48.417Z,1464.00
2019-04-10T09:00:50.957Z,1440.00
2019-04-10T09:01:48.044Z,1452.00
2019-04-10T09:02:48.618Z,1476.00
2019-04-10T09:03:48.909Z,1488.00
2019-04-10T09:04:48.981Z,1492.00
2019-04-10T09:05:49.047Z,1488.00
2019-04-10T09:06:48.006Z,1496.00
2019-04-10T09:07:48.526Z,1492.00
2019-04-10T09:08:48.934Z,1468.00
2019-04-10T09:09:48.033Z,1412.00
2019-04-10T09:10:48.966Z,1380.00
2019-04-10T09:11:47.984Z,1384.00
2019-04-10T09:12:47.990Z,1428.00
2019-04-10T09:13:48.585Z,1464.00
2019-04-10T09:14:47.975Z,1524.00
2019-04-10T09:15:47.987Z,1708.00
2019-04-10T09:16:48.919Z,2320.00
2019-04-10T09:17:47.952Z,2208.00
2019-04-10T09:18:47.931Z,1864.00
2019-04-10T09:19:47.930Z,1760.00
2019-04-10T09:20:48.833Z,1740.00
2019-04-10T09:21:48.028Z,1872.00
2019-04-10T09:23:10.397Z,1960.00
2019-04-10T09:23:52.867Z,1872.00
2019-04-10T09:24:50.777Z,1888.00
2019-04-10T09:25:49.187Z,1992.00
2019-04-10T09:26:48.659Z,1888.00
2019-04-10T09:27:47.862Z,1824.00
2019-04-10T09:28:48.616Z,1788.00
2019-04-10T09:29:48.581Z,1744.00
2019-04-10T09:30:49.001Z,1648.00
2019-04-10T09:31:48.167Z,1564.00
2019-04-10T09:32:47.818Z,1512.00
2019-04-10T09:33:47.811Z,1504.00
2019-04-10T09:34:48.174Z,1488.00
2019-04-10T09:35:48.889Z,1484.00
2019-04-10T09:36:47.796Z,1504.00
2019-04-10T09:37:48.363Z,1480.00
2019-04-10T09:38:47.866Z,1424.00
2019-04-10T09:39:50.616Z,1336.00
2019-04-10T09:40:48.843Z,1284.00
2019-04-10T09:41:47.781Z,1300.00
2019-04-10T09:42:48.020Z,1332.00
2019-04-10T09:43:47.766Z,1404.00
2019-04-10T09:44:48.523Z,1504.00
2019-04-10T09:45:48.047Z,1584.00
2019-04-10T09:46:49.553Z,1708.00
2019-04-10T09:47:48.055Z,1856.00
2019-04-10T09:48:49.792Z,2012.00
2019-04-10T09:49:47.712Z,2240.00
2019-04-10T09:50:48.155Z,2576.00
2019-04-10T09:51:48.165Z,2872.00
2019-04-10T09:52:48.692Z,3460.00
2019-04-10T09:53:48.808Z,4128.00
2019-04-10T09:54:48.841Z,4840.00
2019-04-10T09:55:47.662Z,5072.00
2019-04-10T09:56:47.751Z,5148.00
2019-04-10T09:57:47.729Z,5320.00
2019-04-10T09:58:47.635Z,5332.00
2019-04-10T09:59:48.855Z,5396.00
2019-04-10T10:00:48.217Z,5396.00
2019-04-10T10:01:48.557Z,5360.00
2019-04-10T10:02:47.630Z,5452.00
2019-04-10T10:03:48.698Z,5484.00
2019-04-10T10:04:48.076Z,5536.00
2019-04-10T10:05:47.736Z,5580.00
2019-04-10T10:06:47.590Z,5596.00
2019-04-10T10:07:48.566Z,5528.00
2019-04-10T10:08:48.009Z,5308.00
2019-04-10T10:09:47.579Z,4688.00
2019-04-10T10:10:47.558Z,4452.00
2019-04-10T10:11:47.550Z,4280.00
2019-04-10T10:12:48.468Z,3992.00
2019-04-10T10:13:48.255Z,3716.00
2019-04-10T10:14:48.376Z,4092.00
2019-04-10T10:15:47.520Z,4376.00
2019-04-10T10:16:48.419Z,3320.00
2019-04-10T10:17:48.705Z,3220.00
2019-04-10T10:18:47.762Z,3032.00
2019-04-10T10:19:48.128Z,3116.00
2019-04-10T10:20:48.167Z,3436.00
2019-04-10T10:21:48.324Z,2968.00
2019-04-10T10:22:47.548Z,2684.00
2019-04-10T10:23:47.472Z,2504.00
2019-04-10T10:24:47.475Z,2324.00
2019-04-10T10:25:47.801Z,2228.00
2019-04-10T10:26:47.446Z,1988.00
2019-04-10T10:27:47.437Z,1880.00
2019-04-10T10:28:47.435Z,1772.00
2019-04-10T10:29:48.084Z,1676.00
2019-04-10T10:30:47.428Z,1572.00
2019-04-10T10:31:50.843Z,1492.00
2019-04-10T10:32:48.906Z,1432.00
2019-04-10T10:33:48.126Z,1404.00
2019-04-10T10:34:47.396Z,1384.00
2019-04-10T10:35:47.518Z,1388.00
2019-04-10T10:36:49.209Z,1400.00
2019-04-10T10:37:48.493Z,1400.00
2019-04-10T10:38:47.521Z,1400.00
2019-04-10T10:39:47.348Z,1396.00
2019-04-10T10:40:47.354Z,1380.00
2019-04-10T10:41:47.339Z,1368.00
2019-04-10T10:42:47.700Z,1336.00
2019-04-10T10:43:47.315Z,1328.00
2019-04-10T10:44:48.075Z,1332.00
2019-04-10T10:45:47.320Z,1360.00
2019-04-10T10:46:47.496Z,1408.00
2019-04-10T10:47:48.480Z,1452.00
2019-04-10T10:48:48.250Z,1488.00
2019-04-10T10:49:47.271Z,1508.00
2019-04-10T10:50:47.745Z,1520.00
2019-04-10T10:51:47.266Z,1532.00
2019-04-10T10:52:47.959Z,1548.00
2019-04-10T10:53:48.218Z,1552.00
2019-04-10T10:54:47.317Z,1560.00
2019-04-10T10:55:47.602Z,1556.00
2019-04-10T10:56:47.239Z,1588.00
2019-04-10T10:57:47.215Z,1640.00
2019-04-10T10:58:48.135Z,1676.00
2019-04-10T10:59:47.187Z,1696.00
2019-04-10T11:00:47.493Z,1688.00
2019-04-10T11:01:48.543Z,1660.00
2019-04-10T11:02:47.183Z,1640.00
2019-04-10T11:03:47.320Z,1648.00
2019-04-10T11:04:47.521Z,1668.00
2019-04-10T11:05:47.158Z,1656.00
2019-04-10T11:06:54.383Z,1640.00
2019-04-10T11:07:49.365Z,1628.00
2019-04-10T11:08:47.784Z,1592.00
2019-04-10T11:09:48.449Z,1544.00
2019-04-10T11:10:50.724Z,1500.00
2019-04-10T11:11:49.458Z,1460.00
2019-04-10T11:12:48.124Z,1396.00
2019-04-10T11:13:47.114Z,1344.00
2019-04-10T11:14:48.170Z,1316.00
2019-04-10T11:15:48.477Z,1316.00
2019-04-10T11:16:47.113Z,1316.00
2019-04-10T11:17:47.297Z,1268.00
2019-04-10T11:18:47.070Z,1244.00
2019-04-10T11:19:48.667Z,1252.00
2019-04-10T11:20:48.351Z,1284.00
2019-04-10T11:21:47.153Z,1332.00
2019-04-10T11:22:49.511Z,1384.00
2019-04-10T11:23:47.063Z,1396.00
2019-04-10T11:24:47.204Z,1388.00
2019-04-10T11:25:48.057Z,1380.00
2019-04-10T11:26:47.021Z,1344.00
2019-04-10T11:27:47.543Z,1312.00
2019-04-10T11:28:47.925Z,1296.00
2019-04-10T11:29:47.010Z,1280.00
2019-04-10T11:30:47.450Z,1256.00
2019-04-10T11:31:48.956Z,1256.00
2019-04-10T11:32:48.423Z,1260.00
2019-04-10T11:33:50.246Z,1252.00
2019-04-10T11:34:49.378Z,1240.00
2019-04-10T11:35:47.633Z,1208.00
2019-04-10T11:36:50.953Z,1164.00
2019-04-10T11:37:51.354Z,1124.00
2019-04-10T11:38:49.358Z,1096.00
2019-04-10T11:39:48.128Z,1072.00
2019-04-10T11:40:49.556Z,1056.00
2019-04-10T11:41:49.941Z,1056.00
2019-04-10T11:42:47.914Z,1080.00
2019-04-10T11:43:48.036Z,1128.00
2019-04-10T11:44:48.620Z,1168.00
2019-04-10T11:46:49.424Z,1216.00
2019-04-10T11:47:47.561Z,1252.00
2019-04-10T11:48:49.297Z,1300.00
2019-04-10T11:49:48.928Z,1352.00
2019-04-10T11:50:46.858Z,1396.00
2019-04-10T11:51:49.883Z,1448.00
2019-04-10T11:52:52.502Z,1496.00
2019-04-10T11:54:49.258Z,1484.00
2019-04-10T11:55:51.079Z,1468.00
2019-04-10T11:56:50.968Z,1468.00
2019-04-10T11:57:49.717Z,1456.00
2019-04-10T11:58:54.016Z,1408.00
2019-04-10T11:59:49.088Z,1344.00
2019-04-10T12:00:52.514Z,1280.00
2019-04-10T12:01:50.688Z,1268.00
2019-04-10T12:02:51.996Z,1308.00
2019-04-10T12:03:51.482Z,1352.00
2019-04-10T12:04:54.185Z,1356.00
2019-04-10T12:05:51.142Z,1368.00
2019-04-10T12:06:50.322Z,1376.00
2019-04-10T12:08:08.947Z,1364.00
2019-04-10T12:09:13.661Z,1340.00
2019-04-10T12:11:48.998Z,1336.00
2019-04-10T12:12:46.708Z,1340.00
2019-04-10T12:13:46.712Z,1352.00
2019-04-10T12:14:47.831Z,1364.00
2019-04-10T12:15:46.696Z,1380.00
2019-04-10T12:16:47.410Z,1396.00
2019-04-10T12:17:46.686Z,1412.00
2019-04-10T12:18:46.847Z,1416.00
2019-04-10T12:19:46.727Z,1412.00
2019-04-10T12:20:46.666Z,1396.00
2019-04-10T12:21:47.635Z,1376.00
2019-04-10T12:22:46.648Z,1336.00
2019-04-10T12:23:47.370Z,1280.00
2019-04-10T12:24:49.702Z,1228.00
2019-04-10T12:25:47.618Z,1184.00
2019-04-10T12:26:47.767Z,1152.00
2019-04-10T12:27:47.415Z,1116.00
2019-04-10T12:28:46.624Z,1076.00
2019-04-10T12:29:46.758Z,1036.00
2019-04-10T12:30:47.723Z,1020.00
2019-04-10T12:31:46.592Z,1008.00
2019-04-10T12:32:47.497Z,1008.00
2019-04-10T12:33:46.650Z,1008.00
2019-04-10T12:34:48.634Z,1004.00
2019-04-10T12:35:47.731Z,1000.00
2019-04-10T12:36:46.841Z,996.00
2019-04-10T12:37:57.275Z,1004.00
2019-04-10T12:38:47.769Z,1016.00
2019-04-10T12:39:47.528Z,1020.00
2019-04-10T12:40:46.763Z,1024.00
2019-04-10T12:41:47.841Z,1012.00
2019-04-10T12:42:46.532Z,980.00
2019-04-10T12:43:47.344Z,944.00
2019-04-10T12:44:47.168Z,920.00
2019-04-10T12:45:46.600Z,912.00